Time,TemperatureF,DewpointF,PressureIn,WindDirection,WindDirectionDegrees,WindSpeedMPH,WindSpeedGustMPH,Humidity,HourlyPrecipIn,Conditions,Clouds,dailyrainin,SoftwareType,DateUTC
2013-01-14 00:13:00,30.0,29.5,29.37,South,180,0.0,-999.0,98,-99.99,,,0.00,Acu-Link.com,2013-01-14 09:13:00,
2013-01-14 00:28:00,29.7,29.2,29.36,SW,225,0.0,-999.0,98,-99.99,,,0.00,Acu-Link.com,2013-01-14 09:28:00,
2013-01-14 00:44:00,29.3,28.8,29.35,East,90,0.0,-999.0,98,-99.99,,,0.00,Acu-Link.com,2013-01-14 09:44:00,
2013-01-14 00:59:00,28.8,28.3,29.34,South,180,0.0,-999.0,98,-99.99,,,0.00,Acu-Link.com,2013-01-14 09:59:00,
2013-01-14 01:14:00,29.3,28.8,29.35,West,270,0.0,-999.0,98,-99.99,,,0.00,Acu-Link.com,2013-01-14 10:14:00,
2013-01-14 01:29:00,29.1,28.6,29.35,SW,225,0.0,-999.0,98,-99.99,,,0.00,Acu-Link.com,2013-01-14 10:29:00,
2013-01-14 01:44:00,28.0,27.5,29.34,West,270,0.0,-999.0,98,-99.99,,,0.00,Acu-Link.com,2013-01-14 10:44:00,
2013-01-14 02:00:00,27.7,27.2,29.35,WSW,247,0.0,-999.0,98,-99.99,,,0.00,Acu-Link.com,2013-01-14 11:00:00,
2013-01-14 02:15:00,28.2,27.7,29.34,ESE,112,0.0,-999.0,98,-99.99,,,0.00,Acu-Link.com,2013-01-14 11:15:00,
2013-01-14 02:30:00,28.0,27.5,29.32,NE,45,0.0,-999.0,98,-99.99,,,0.00,Acu-Link.com,2013-01-14 11:30:00,
2013-01-14 02:46:00,28.0,27.5,29.30,ESE,112,0.0,-999.0,98,-99.99,,,0.00,Acu-Link.com,2013-01-14 11:46:00,
2013-01-14 03:01:00,27.9,27.4,29.29,ESE,112,0.0,-999.0,98,-99.99,,,0.00,Acu-Link.com,2013-01-14 12:01:00,
2013-01-14 03:17:00,27.3,26.8,29.30,WNW,292,0.0,-999.0,98,-99.99,,,0.00,Acu-Link.com,2013-01-14 12:17:00,
2013-01-14 03:32:00,27.3,26.8,29.31,WNW,292,0.0,-999.0,98,-99.99,,,0.00,Acu-Link.com,2013-01-14 12:32:00,
2013-01-14 03:47:00,27.3,26.8,29.30,West,270,0.0,-999.0,98,-99.99,,,0.00,Acu-Link.com,2013-01-14 12:47:00,
2013-01-14 04:02:00,28.4,27.9,29.31,NNE,22,0.0,-999.0,98,-99.99,,,0.00,Acu-Link.com,2013-01-14 13:02:00,
2013-01-14 04:18:00,28.4,27.9,29.29,ENE,67,0.0,-999.0,98,-99.99,,,0.00,Acu-Link.com,2013-01-14 13:18:00,
2013-01-14 04:33:00,28.4,27.9,29.27,ESE,112,2.2,-999.0,98,-99.99,,,0.00,Acu-Link.com,2013-01-14 13:33:00,
2013-01-14 04:48:00,28.2,27.7,29.27,East,90,0.0,-999.0,98,-99.99,,,0.00,Acu-Link.com,2013-01-14 13:48:00,
2013-01-14 05:04:00,27.7,27.2,29.25,North,0,0.0,-999.0,98,-99.99,,,0.00,Acu-Link.com,2013-01-14 14:04:00,
2013-01-14 05:19:00,27.3,26.8,29.24,SW,225,0.0,-999.0,98,-99.99,,,0.00,Acu-Link.com,2013-01-14 14:19:00,
2013-01-14 05:34:00,27.3,26.8,29.22,WSW,247,0.0,-999.0,98,-99.99,,,0.00,Acu-Link.com,2013-01-14 14:34:00,
2013-01-14 05:50:00,27.3,26.8,29.21,NE,45,0.0,-999.0,98,-99.99,,,0.00,Acu-Link.com,2013-01-14 14:50:00,
2013-01-14 06:05:00,27.3,26.8,29.19,NNE,22,0.0,-999.0,98,-99.99,,,0.00,Acu-Link.com,2013-01-14 15:05:00,
2013-01-14 06:20:00,27.0,26.5,29.20,WSW,247,1.7,-999.0,98,-99.99,,,0.00,Acu-Link.com,2013-01-14 15:20:00,
2013-01-14 06:35:00,27.7,27.2,29.20,WNW,292,1.7,-999.0,98,-99.99,,,0.00,Acu-Link.com,2013-01-14 15:35:00,
2013-01-14 06:50:00,28.0,27.5,29.20,West,270,0.0,-999.0,98,-99.99,,,0.00,Acu-Link.com,2013-01-14 15:50:00,
2013-01-14 07:06:00,28.0,27.5,29.18,NE,45,0.0,-999.0,98,-99.99,,,0.00,Acu-Link.com,2013-01-14 16:06:00,
2013-01-14 07:21:00,27.7,27.2,29.17,East,90,0.0,-999.0,98,-99.99,,,0.00,Acu-Link.com,2013-01-14 16:21:00,
2013-01-14 07:36:00,27.7,27.2,29.17,West,270,0.0,-999.0,98,-99.99,,,0.00,Acu-Link.com,2013-01-14 16:36:00,
2013-01-14 07:52:00,27.9,27.4,29.15,NE,45,0.0,-999.0,98,-99.99,,,0.00,Acu-Link.com,2013-01-14 16:52:00,
2013-01-14 08:07:00,27.9,27.4,29.15,South,180,0.0,-999.0,98,-99.99,,,0.00,Acu-Link.com,2013-01-14 17:07:00,
2013-01-14 08:24:00,28.4,27.9,29.15,South,180,0.0,-999.0,98,-99.99,,,0.00,Acu-Link.com,2013-01-14 17:24:00,
2013-01-14 08:39:00,28.4,27.9,29.14,WNW,292,1.7,-999.0,98,-99.99,,,0.00,Acu-Link.com,2013-01-14 17:39:00,
2013-01-14 08:54:00,29.3,28.8,29.13,NNE,22,3.7,-999.0,98,-99.99,,,0.00,Acu-Link.com,2013-01-14 17:54:00,
2013-01-14 09:09:00,30.2,29.7,29.12,North,0,2.7,-999.0,98,-99.99,,,0.00,Acu-Link.com,2013-01-14 18:09:00,
2013-01-14 09:25:00,30.7,30.2,29.11,East,90,0.0,-999.0,98,-99.99,,,0.00,Acu-Link.com,2013-01-14 18:25:00,
2013-01-14 09:40:00,31.8,31.3,29.07,East,90,4.2,-999.0,98,-99.99,,,0.00,Acu-Link.com,2013-01-14 18:40:00,
2013-01-14 09:55:00,32.2,31.7,29.09,West,270,2.7,-999.0,98,-99.99,,,0.00,Acu-Link.com,2013-01-14 18:55:00,
2013-01-14 10:11:00,32.2,31.7,29.10,SW,225,2.2,-999.0,98,-99.99,,,0.00,Acu-Link.com,2013-01-14 19:11:00,
2013-01-14 10:26:00,32.2,31.7,29.11,NE,45,0.0,-999.0,98,-99.99,,,0.00,Acu-Link.com,2013-01-14 19:26:00,
2013-01-14 10:41:00,32.2,31.7,29.13,SSW,202,2.2,-999.0,98,-99.99,,,0.00,Acu-Link.com,2013-01-14 19:41:00,
2013-01-14 10:56:00,32.2,31.7,29.14,WSW,247,3.7,-999.0,98,-99.99,,,0.00,Acu-Link.com,2013-01-14 19:56:00,
2013-01-14 11:12:00,32.9,32.4,29.14,SSE,157,0.0,-999.0,98,-99.99,,,0.00,Acu-Link.com,2013-01-14 20:12:00,
2013-01-14 11:27:00,32.9,32.4,29.15,NNE,22,0.0,-999.0,98,-99.99,,,0.00,Acu-Link.com,2013-01-14 20:27:00,
2013-01-14 11:42:00,32.7,32.2,29.16,SW,225,4.7,-999.0,98,-99.99,,,0.00,Acu-Link.com,2013-01-14 20:42:00,
2013-01-14 11:58:00,32.7,32.2,29.19,WSW,247,10.4,-999.0,98,-99.99,,,0.00,Acu-Link.com,2013-01-14 20:58:00,
2013-01-14 12:13:00,33.1,32.6,29.21,WSW,247,9.9,-999.0,98,-99.99,,,0.00,Acu-Link.com,2013-01-14 21:13:00,
2013-01-14 12:58:00,33.3,32.8,29.24,WSW,247,9.4,-999.0,98,-99.99,,,0.00,Acu-Link.com,2013-01-14 21:58:00,
2013-01-14 13:16:00,32.5,31.5,29.27,WSW,247,4.2,-999.0,96,-99.99,,,0.00,Acu-Link.com,2013-01-14 22:16:00,
2013-01-14 13:39:00,33.3,32.5,29.27,West,270,10.4,-999.0,97,-99.99,,,0.00,Acu-Link.com,2013-01-14 22:39:00,
2013-01-14 13:59:00,33.3,32.5,29.29,South,180,5.8,-999.0,97,-99.99,,,0.00,Acu-Link.com,2013-01-14 22:59:00,
2013-01-14 14:32:00,32.9,32.4,29.30,SE,135,0.0,-999.0,98,-99.99,,,0.00,Acu-Link.com,2013-01-14 23:32:00,
2013-01-14 15:15:00,32.0,31.5,29.34,NE,45,1.7,-999.0,98,-99.99,,,0.00,Acu-Link.com,2013-01-15 00:15:00,
2013-01-14 15:30:00,31.8,31.3,29.35,NW,315,3.2,-999.0,98,-99.99,,,0.04,Acu-Link.com,2013-01-15 00:30:00,
2013-01-14 15:45:00,31.6,31.1,29.37,South,180,6.3,-999.0,98,-99.99,,,0.06,Acu-Link.com,2013-01-15 00:45:00,
2013-01-14 16:01:00,31.6,31.1,29.39,SSE,157,4.7,-999.0,98,-99.99,,,0.07,Acu-Link.com,2013-01-15 01:01:00,
2013-01-14 16:16:00,32.0,31.5,29.40,South,180,6.3,-999.0,98,-99.99,,,0.09,Acu-Link.com,2013-01-15 01:16:00,
2013-01-14 16:31:00,32.0,31.5,29.40,South,180,4.2,-999.0,98,-99.99,,,0.11,Acu-Link.com,2013-01-15 01:31:00,
2013-01-14 16:46:00,32.2,31.7,29.40,SSE,157,4.2,-999.0,98,-99.99,,,0.12,Acu-Link.com,2013-01-15 01:46:00,
2013-01-14 17:02:00,32.4,31.9,29.42,SSW,202,4.2,-999.0,98,-99.99,,,0.14,Acu-Link.com,2013-01-15 02:02:00,
2013-01-14 17:18:00,32.5,32.0,29.43,South,180,6.3,-999.0,98,-99.99,,,0.15,Acu-Link.com,2013-01-15 02:18:00,
2013-01-14 17:33:00,33.1,32.6,29.42,SSW,202,6.8,-999.0,98,-99.99,,,0.20,Acu-Link.com,2013-01-15 02:33:00,
2013-01-14 17:48:00,34.0,33.5,29.43,SW,225,9.4,-999.0,98,-99.99,,,0.22,Acu-Link.com,2013-01-15 02:48:00,
2013-01-14 18:03:00,34.3,33.8,29.44,SW,225,9.9,-999.0,98,-99.99,,,0.24,Acu-Link.com,2013-01-15 03:03:00,
2013-01-14 18:19:00,34.9,34.4,29.44,SSW,202,7.8,-999.0,98,-99.99,,,0.29,Acu-Link.com,2013-01-15 03:19:00,
2013-01-14 18:34:00,35.1,34.6,29.45,SW,225,7.3,-999.0,98,-99.99,,,0.34,Acu-Link.com,2013-01-15 03:34:00,
2013-01-14 18:50:00,35.1,34.6,29.45,SW,225,5.3,-999.0,98,-99.99,,,0.43,Acu-Link.com,2013-01-15 03:50:00,
2013-01-14 19:05:00,34.9,34.4,29.45,SSW,202,8.3,-999.0,98,-99.99,,,0.45,Acu-Link.com,2013-01-15 04:05:00,
2013-01-14 19:20:00,34.9,34.4,29.46,SW,225,5.8,-999.0,98,-99.99,,,0.47,Acu-Link.com,2013-01-15 04:20:00,
2013-01-14 19:36:00,34.7,34.2,29.47,WSW,247,6.3,-999.0,98,-99.99,,,0.48,Acu-Link.com,2013-01-15 04:36:00,
2013-01-14 19:51:00,35.1,34.3,29.48,SW,225,8.9,-999.0,97,-99.99,,,0.50,Acu-Link.com,2013-01-15 04:51:00,
2013-01-14 20:07:00,34.9,34.1,29.49,SW,225,4.2,-999.0,97,-99.99,,,0.51,Acu-Link.com,2013-01-15 05:07:00,
2013-01-14 20:22:00,34.9,34.4,29.49,WSW,247,5.3,-999.0,98,-99.99,,,0.51,Acu-Link.com,2013-01-15 05:22:00,
2013-01-14 20:37:00,34.7,34.2,29.51,WSW,247,6.8,-999.0,98,-99.99,,,0.52,Acu-Link.com,2013-01-15 05:37:00,
2013-01-14 20:52:00,34.3,33.8,29.51,West,270,12.5,-999.0,98,-99.99,,,0.52,Acu-Link.com,2013-01-15 05:52:00,
2013-01-14 21:08:00,34.0,33.5,29.51,WSW,247,13.5,-999.0,98,-99.99,,,0.53,Acu-Link.com,2013-01-15 06:08:00,
2013-01-14 21:24:00,33.8,33.3,29.53,West,270,7.8,-999.0,98,-99.99,,,0.54,Acu-Link.com,2013-01-15 06:24:00,
2013-01-14 21:39:00,33.3,32.8,29.54,SW,225,6.3,-999.0,98,-99.99,,,0.54,Acu-Link.com,2013-01-15 06:39:00,
2013-01-14 21:54:00,32.5,32.0,29.55,West,270,11.4,-999.0,98,-99.99,,,0.54,Acu-Link.com,2013-01-15 06:54:00,
2013-01-14 22:09:00,32.2,31.7,29.57,West,270,8.9,-999.0,98,-99.99,,,0.55,Acu-Link.com,2013-01-15 07:09:00,
2013-01-14 22:25:00,32.0,31.5,29.60,West,270,14.5,-999.0,98,-99.99,,,0.55,Acu-Link.com,2013-01-15 07:25:00,
2013-01-14 22:40:00,31.6,31.1,29.62,WNW,292,13.5,-999.0,98,-99.99,,,0.55,Acu-Link.com,2013-01-15 07:40:00,
2013-01-14 22:55:00,30.9,30.4,29.64,WSW,247,17.6,-999.0,98,-99.99,,,0.55,Acu-Link.com,2013-01-15 07:55:00,
2013-01-14 23:10:00,30.4,29.7,29.65,West,270,18.1,-999.0,97,-99.99,,,0.55,Acu-Link.com,2013-01-15 08:10:00,
2013-01-14 23:26:00,30.2,28.9,29.67,NW,315,15.0,-999.0,95,-99.99,,,0.55,Acu-Link.com,2013-01-15 08:26:00,
2013-01-14 23:41:00,29.7,27.9,29.68,West,270,9.9,-999.0,93,-99.99,,,0.55,Acu-Link.com,2013-01-15 08:41:00,
2013-01-14 23:56:00,28.8,28.3,29.70,West,270,7.8,-999.0,98,-99.99,,,0.55,Acu-Link.com,2013-01-15 08:56:00,